Lymantown, Wisconsin
Current Conditions -  °F | °C
As of 8:55 PM on Monday 22 Dec 2014 (Local Time) from KPBH Reporting Station
Light Snow Light Snow  
Wind Chill: 24°   Ceiling: 1100
Heat Index: 32°   Visibility: 4mi
Dew Point: 30°   Wind: 9mph
Humidity: 92%   Direction: 90°E
Pressure: 29.7"   Gusts: NA
Location:  45.9599°N, 90.2362°W
Report Text: KPBH 230255Z AUTO 09008KT 4SM -SN OVC011 00/M01 A2970 RMK AO2 T00001011
Loading
Personal Weather Stations






























Interactive Weather Map New forecast layout! Learn more

10-Day Weather Forecast

Advertisements
Track Severe Weather on mobile